Time,TemperatureF,DewpointF,PressureIn,WindDirection,WindDirectionDegrees,WindSpeedMPH,WindSpeedGustMPH,Humidity,HourlyPrecipIn,Conditions,Clouds,dailyrainin,SolarRadiationWatts/m^2,SoftwareType,DateUTC
2013-02-26 00:01:00,26.0,22.0,-100.00,West,259,11.0,14.0,83,-99.99,,,-99.99,-0.100000,,2013-02-26 07:01:00,
2013-02-26 00:11:00,26.0,22.0,-100.00,WSW,254,8.0,11.0,82,-99.99,,,-99.99,-0.100000,,2013-02-26 07:11:00,
2013-02-26 00:21:00,26.0,22.0,-100.00,West,264,10.0,14.0,82,-99.99,,,-99.99,-0.100000,,2013-02-26 07:21:00,
2013-02-26 00:31:00,26.0,22.0,-100.00,West,267,9.0,13.0,83,-99.99,,,-99.99,-0.100000,,2013-02-26 07:31:00,
2013-02-26 00:41:00,26.0,22.0,-100.00,West,270,11.0,12.0,83,-99.99,,,-99.99,-0.100000,,2013-02-26 07:41:00,
2013-02-26 00:51:00,26.0,22.0,-100.00,West,262,9.0,12.0,84,-99.99,,,-99.99,-0.100000,,2013-02-26 07:51:00,
2013-02-26 01:01:00,26.0,22.0,-100.00,WSW,257,8.0,9.0,84,-99.99,,,-99.99,-0.100000,,2013-02-26 08:01:00,
2013-02-26 01:11:00,26.0,22.0,-100.00,West,263,7.0,9.0,84,-99.99,,,-99.99,-0.100000,,2013-02-26 08:11:00,
2013-02-26 01:21:00,25.0,21.0,-100.00,WSW,250,7.0,9.0,85,-99.99,,,-99.99,-0.100000,,2013-02-26 08:21:00,
2013-02-26 01:31:00,25.0,21.0,-100.00,West,272,6.0,9.0,85,-99.99,,,-99.99,-0.100000,,2013-02-26 08:31:00,
2013-02-26 01:41:00,25.0,21.0,-100.00,WNW,287,8.0,11.0,85,-99.99,,,-99.99,-0.100000,,2013-02-26 08:41:00,
2013-02-26 01:51:00,24.0,20.0,-100.00,WNW,284,9.0,11.0,86,-99.99,,,-99.99,-0.100000,,2013-02-26 08:51:00,
2013-02-26 02:01:00,24.0,20.0,-100.00,West,277,6.0,8.0,86,-99.99,,,-99.99,0.000000,,2013-02-26 09:01:00,
2013-02-26 02:11:00,24.0,20.0,-100.00,West,269,10.0,12.0,86,-99.99,,,-99.99,0.000000,,2013-02-26 09:11:00,
2013-02-26 02:21:00,23.0,20.0,-100.00,West,263,7.0,8.0,87,-99.99,,,-99.99,-0.100000,,2013-02-26 09:21:00,
2013-02-26 02:31:00,23.0,20.0,-100.00,West,271,9.0,11.0,87,-99.99,,,-99.99,0.000000,,2013-02-26 09:31:00,
2013-02-26 02:42:00,23.0,20.0,-100.00,West,280,10.0,14.0,88,-99.99,,,-99.99,-0.100000,,2013-02-26 09:42:00,
2013-02-26 02:51:00,23.0,20.0,-100.00,West,271,9.0,11.0,88,-99.99,,,-99.99,0.000000,,2013-02-26 09:51:00,
2013-02-26 03:01:00,23.0,20.0,-100.00,WNW,286,6.0,8.0,88,-99.99,,,-99.99,-0.100000,,2013-02-26 10:01:00,
2013-02-26 03:11:00,23.0,20.0,-100.00,NW,310,5.0,7.0,88,-99.99,,,-99.99,-0.100000,,2013-02-26 10:11:00,
2013-02-26 03:21:00,22.0,19.0,-100.00,NW,324,6.0,8.0,88,-99.99,,,-99.99,-0.100000,,2013-02-26 10:21:00,
2013-02-26 03:31:00,21.0,19.0,-100.00,NW,324,6.0,7.0,89,-99.99,,,-99.99,-0.100000,,2013-02-26 10:31:00,
2013-02-26 03:41:00,21.0,18.0,-100.00,NNW,333,6.0,8.0,89,-99.99,,,-99.99,-0.100000,,2013-02-26 10:41:00,
2013-02-26 03:51:00,21.0,18.0,-100.00,NNW,340,3.0,4.0,89,-99.99,,,-99.99,-0.100000,,2013-02-26 10:51:00,
2013-02-26 04:01:00,21.0,18.0,-100.00,NNE,29,2.0,3.0,89,-99.99,,,-99.99,-0.100000,,2013-02-26 11:01:00,
2013-02-26 04:11:00,20.0,17.0,-100.00,NNE,12,1.0,2.0,90,-99.99,,,-99.99,-0.100000,,2013-02-26 11:11:00,
2013-02-26 04:21:00,20.0,17.0,-100.00,East,101,2.0,4.0,90,-99.99,,,-99.99,-0.100000,,2013-02-26 11:21:00,
2013-02-26 04:31:00,19.0,17.0,-100.00,SSE,150,1.0,2.0,90,-99.99,,,-99.99,-0.100000,,2013-02-26 11:31:00,
2013-02-26 04:41:00,19.0,17.0,-100.00,SW,217,2.0,3.0,90,-99.99,,,-99.99,0.000000,,2013-02-26 11:41:00,
2013-02-26 04:52:00,20.0,17.0,-100.00,SW,230,2.0,4.0,91,-99.99,,,-99.99,-0.100000,,2013-02-26 11:52:00,
2013-02-26 05:01:00,21.0,18.0,-100.00,West,263,4.0,5.0,90,-99.99,,,-99.99,-0.100000,,2013-02-26 12:01:00,
2013-02-26 05:11:00,20.0,17.0,-100.00,SW,217,3.0,4.0,87,-99.99,,,-99.99,-0.100000,,2013-02-26 12:11:00,
2013-02-26 05:21:00,19.0,17.0,-100.00,SW,224,4.0,5.0,91,-99.99,,,-99.99,-0.100000,,2013-02-26 12:21:00,
2013-02-26 05:32:00,22.0,19.0,-100.00,SW,232,5.0,6.0,90,-99.99,,,-99.99,-0.100000,,2013-02-26 12:32:00,
2013-02-26 05:41:00,22.0,19.0,-100.00,WSW,252,6.0,7.0,88,-99.99,,,-99.99,0.000000,,2013-02-26 12:41:00,
2013-02-26 05:52:00,22.0,19.0,-100.00,WSW,243,7.0,9.0,87,-99.99,,,-99.99,-0.100000,,2013-02-26 12:52:00,
2013-02-26 06:01:00,22.0,19.0,-100.00,WSW,241,8.0,12.0,87,-99.99,,,-99.99,-0.100000,,2013-02-26 13:01:00,
2013-02-26 06:11:00,22.0,19.0,-100.00,WSW,258,9.0,11.0,86,-99.99,,,-99.99,0.000000,,2013-02-26 13:11:00,
2013-02-26 06:21:00,22.0,19.0,-100.00,WSW,257,8.0,11.0,87,-99.99,,,-99.99,-0.100000,,2013-02-26 13:21:00,
2013-02-26 06:31:00,22.0,19.0,-100.00,WSW,246,8.0,10.0,86,-99.99,,,-99.99,-0.100000,,2013-02-26 13:31:00,
2013-02-26 06:42:00,22.0,18.0,-100.00,WSW,251,8.0,11.0,87,-99.99,,,-99.99,-0.100000,,2013-02-26 13:42:00,
2013-02-26 06:51:00,22.0,18.0,-100.00,WSW,256,9.0,12.0,87,-99.99,,,-99.99,-0.100000,,2013-02-26 13:51:00,
2013-02-26 07:01:00,21.0,18.0,-100.00,West,267,6.0,9.0,86,-99.99,,,-99.99,0.000000,,2013-02-26 14:01:00,
2013-02-26 07:11:00,19.0,16.0,-100.00,West,265,6.0,7.0,87,-99.99,,,-99.99,0.000000,,2013-02-26 14:11:00,
2013-02-26 07:21:00,19.0,16.0,-100.00,West,262,6.0,8.0,88,-99.99,,,-99.99,1.000000,,2013-02-26 14:21:00,
2013-02-26 07:31:00,19.0,16.0,-100.00,West,274,3.0,5.0,87,-99.99,,,-99.99,4.000000,,2013-02-26 14:31:00,
2013-02-26 07:41:00,18.0,15.0,-100.00,NNW,342,3.0,4.0,89,-99.99,,,-99.99,7.700000,,2013-02-26 14:41:00,
2013-02-26 07:52:00,17.0,15.0,-100.00,WNW,289,4.0,6.0,89,-99.99,,,-99.99,17.400000,,2013-02-26 14:52:00,
2013-02-26 08:01:00,18.0,16.0,-100.00,WNW,289,5.0,7.0,90,-99.99,,,-99.99,50.299999,,2013-02-26 15:01:00,
2013-02-26 08:11:00,19.0,17.0,-100.00,WNW,284,5.0,6.0,90,-99.99,,,-99.99,123.400002,,2013-02-26 15:11:00,
2013-02-26 08:21:00,21.0,18.0,-100.00,West,281,5.0,8.0,88,-99.99,,,-99.99,113.900002,,2013-02-26 15:21:00,
2013-02-26 08:31:00,21.0,18.0,-100.00,West,263,6.0,7.0,87,-99.99,,,-99.99,64.300003,,2013-02-26 15:31:00,
2013-02-26 08:41:00,22.0,19.0,-100.00,WSW,250,7.0,10.0,87,-99.99,,,-99.99,87.000000,,2013-02-26 15:41:00,
2013-02-26 08:51:00,23.0,19.0,-100.00,SW,236,8.0,11.0,85,-99.99,,,-99.99,133.800003,,2013-02-26 15:51:00,
2013-02-26 09:01:00,23.0,19.0,-100.00,WSW,239,10.0,14.0,84,-99.99,,,-99.99,184.000000,,2013-02-26 16:01:00,
2013-02-26 09:11:00,23.0,19.0,-100.00,WSW,243,9.0,12.0,83,-99.99,,,-99.99,311.700012,,2013-02-26 16:11:00,
2013-02-26 09:22:00,24.0,19.0,-100.00,SW,235,13.0,19.0,82,-99.99,,,-99.99,236.899994,,2013-02-26 16:22:00,
2013-02-26 09:31:00,24.0,19.0,-100.00,WSW,239,14.0,18.0,82,-99.99,,,-99.99,362.000000,,2013-02-26 16:31:00,
2013-02-26 09:41:00,23.0,19.0,-100.00,WSW,241,10.0,14.0,82,-99.99,,,-99.99,275.200012,,2013-02-26 16:41:00,
2013-02-26 09:51:00,23.0,19.0,-100.00,WSW,242,12.0,16.0,82,-99.99,,,-99.99,205.899994,,2013-02-26 16:51:00,
2013-02-26 10:01:00,23.0,19.0,-100.00,WSW,241,11.0,15.0,83,-99.99,,,-99.99,291.799988,,2013-02-26 17:01:00,
2013-02-26 10:11:00,23.0,19.0,-100.00,WSW,250,14.0,19.0,83,-99.99,,,-99.99,314.299988,,2013-02-26 17:11:00,
2013-02-26 10:21:00,22.0,18.0,-100.00,WSW,248,13.0,17.0,85,-99.99,,,-99.99,268.399994,,2013-02-26 17:21:00,
2013-02-26 10:32:00,22.0,18.0,-100.00,WSW,254,14.0,18.0,85,-99.99,,,-99.99,248.800003,,2013-02-26 17:32:00,
2013-02-26 10:41:00,22.0,18.0,-100.00,WSW,239,12.0,17.0,85,-99.99,,,-99.99,374.700012,,2013-02-26 17:41:00,
2013-02-26 10:52:00,23.0,19.0,-100.00,SW,230,11.0,17.0,83,-99.99,,,-99.99,601.200012,,2013-02-26 17:52:00,
2013-02-26 11:01:00,23.0,19.0,-100.00,WSW,248,12.0,16.0,82,-99.99,,,-99.99,265.700012,,2013-02-26 18:01:00,
2013-02-26 11:12:00,23.0,19.0,-100.00,SW,234,13.0,17.0,82,-99.99,,,-99.99,388.899994,,2013-02-26 18:12:00,
2013-02-26 11:21:00,23.0,18.0,-100.00,WSW,245,12.0,17.0,82,-99.99,,,-99.99,394.399994,,2013-02-26 18:21:00,
2013-02-26 11:31:00,23.0,19.0,-100.00,SW,232,13.0,17.0,82,-99.99,,,-99.99,515.200012,,2013-02-26 18:31:00,
2013-02-26 11:42:00,23.0,18.0,-100.00,SW,223,13.0,16.0,82,-99.99,,,-99.99,614.900024,,2013-02-26 18:42:00,
2013-02-26 11:52:00,23.0,18.0,-100.00,SW,226,13.0,16.0,81,-99.99,,,-99.99,555.900024,,2013-02-26 18:52:00,
2013-02-26 12:01:00,24.0,19.0,-100.00,SW,234,10.0,15.0,82,-99.99,,,-99.99,609.200012,,2013-02-26 19:01:00,
2013-02-26 12:11:00,24.0,19.0,-100.00,WSW,241,11.0,16.0,80,-99.99,,,-99.99,611.900024,,2013-02-26 19:11:00,
2013-02-26 12:22:00,25.0,19.0,-100.00,SW,236,11.0,15.0,79,-99.99,,,-99.99,554.400024,,2013-02-26 19:22:00,
2013-02-26 12:31:00,25.0,20.0,-100.00,SW,217,11.0,14.0,79,-99.99,,,-99.99,565.299988,,2013-02-26 19:31:00,
2013-02-26 12:41:00,25.0,20.0,-100.00,SW,224,11.0,13.0,78,-99.99,,,-99.99,632.299988,,2013-02-26 19:41:00,
2013-02-26 12:51:00,26.0,20.0,-100.00,SW,229,10.0,14.0,77,-99.99,,,-99.99,636.900024,,2013-02-26 19:51:00,
2013-02-26 13:01:00,27.0,20.0,-100.00,SW,230,12.0,16.0,74,-99.99,,,-99.99,647.500000,,2013-02-26 20:01:00,
2013-02-26 13:11:00,27.0,19.0,-100.00,WSW,241,12.0,16.0,73,-99.99,,,-99.99,618.500000,,2013-02-26 20:11:00,
2013-02-26 13:21:00,27.0,19.0,-100.00,WSW,237,12.0,17.0,70,-99.99,,,-99.99,621.299988,,2013-02-26 20:21:00,
2013-02-26 13:31:00,28.0,20.0,-100.00,West,262,13.0,16.0,69,-99.99,,,-99.99,634.200012,,2013-02-26 20:31:00,
2013-02-26 13:41:00,28.0,19.0,-100.00,WSW,257,11.0,15.0,68,-99.99,,,-99.99,606.599976,,2013-02-26 20:41:00,
2013-02-26 13:51:00,28.0,19.0,-100.00,West,260,10.0,13.0,67,-99.99,,,-99.99,599.000000,,2013-02-26 20:51:00,
2013-02-26 14:01:00,29.0,19.0,-100.00,WSW,237,11.0,14.0,68,-99.99,,,-99.99,590.000000,,2013-02-26 21:01:00,
2013-02-26 14:11:00,29.0,19.0,-100.00,SW,235,10.0,14.0,67,-99.99,,,-99.99,577.900024,,2013-02-26 21:11:00,
2013-02-26 14:21:00,29.0,18.0,-100.00,West,261,13.0,16.0,63,-99.99,,,-99.99,565.700012,,2013-02-26 21:21:00,
2013-02-26 14:31:00,29.0,18.0,-100.00,WSW,246,12.0,18.0,61,-99.99,,,-99.99,551.299988,,2013-02-26 21:31:00,
2013-02-26 14:41:00,29.0,18.0,-100.00,WSW,252,12.0,16.0,61,-99.99,,,-99.99,537.099976,,2013-02-26 21:41:00,
2013-02-26 14:51:00,30.0,17.0,-100.00,WSW,249,12.0,16.0,58,-99.99,,,-99.99,521.400024,,2013-02-26 21:51:00,
2013-02-26 15:01:00,30.0,18.0,-100.00,WSW,250,11.0,15.0,59,-99.99,,,-99.99,503.399994,,2013-02-26 22:01:00,
2013-02-26 15:11:00,30.0,17.0,-100.00,WSW,243,12.0,16.0,57,-99.99,,,-99.99,483.299988,,2013-02-26 22:11:00,
2013-02-26 15:21:00,30.0,17.0,-100.00,WSW,248,10.0,16.0,56,-99.99,,,-99.99,463.399994,,2013-02-26 22:21:00,
2013-02-26 15:31:00,31.0,16.0,-100.00,WSW,256,12.0,18.0,55,-99.99,,,-99.99,441.399994,,2013-02-26 22:31:00,
2013-02-26 15:41:00,30.0,17.0,-100.00,WSW,250,12.0,17.0,56,-99.99,,,-99.99,419.399994,,2013-02-26 22:41:00,
2013-02-26 15:51:00,30.0,18.0,-100.00,WSW,253,11.0,14.0,59,-99.99,,,-99.99,396.700012,,2013-02-26 22:51:00,
2013-02-26 16:01:00,31.0,18.0,-100.00,WSW,254,11.0,14.0,59,-99.99,,,-99.99,371.899994,,2013-02-26 23:01:00,
2013-02-26 16:11:00,31.0,19.0,-100.00,West,261,13.0,17.0,60,-99.99,,,-99.99,345.299988,,2013-02-26 23:11:00,
2013-02-26 16:21:00,31.0,20.0,-100.00,West,264,13.0,17.0,63,-99.99,,,-99.99,317.399994,,2013-02-26 23:21:00,
2013-02-26 16:31:00,31.0,20.0,-100.00,West,271,13.0,17.0,63,-99.99,,,-99.99,294.000000,,2013-02-26 23:31:00,
2013-02-26 16:41:00,31.0,21.0,-100.00,West,275,13.0,16.0,65,-99.99,,,-99.99,299.399994,,2013-02-26 23:41:00,
2013-02-26 16:51:00,31.0,20.0,-100.00,West,271,14.0,18.0,64,-99.99,,,-99.99,353.399994,,2013-02-26 23:51:00,
2013-02-26 17:01:00,31.0,20.0,-100.00,West,267,13.0,17.0,63,-99.99,,,-99.99,222.500000,,2013-02-27 00:01:00,
2013-02-26 17:11:00,31.0,20.0,-100.00,West,274,13.0,16.0,63,-99.99,,,-99.99,194.899994,,2013-02-27 00:11:00,
2013-02-26 17:21:00,31.0,20.0,-100.00,West,266,14.0,16.0,63,-99.99,,,-99.99,168.300003,,2013-02-27 00:21:00,
2013-02-26 17:31:00,31.0,20.0,-100.00,WSW,256,12.0,16.0,63,-99.99,,,-99.99,142.199997,,2013-02-27 00:31:00,
2013-02-26 17:41:00,30.0,19.0,-100.00,WSW,255,12.0,16.0,61,-99.99,,,-99.99,116.699997,,2013-02-27 00:41:00,
2013-02-26 17:51:00,30.0,19.0,-100.00,WSW,256,11.0,17.0,62,-99.99,,,-99.99,89.599998,,2013-02-27 00:51:00,
2013-02-26 18:01:00,30.0,19.0,-100.00,WSW,257,10.0,14.0,64,-99.99,,,-99.99,60.099998,,2013-02-27 01:01:00,
2013-02-26 18:11:00,29.0,19.0,-100.00,WSW,254,11.0,15.0,65,-99.99,,,-99.99,34.299999,,2013-02-27 01:11:00,
2013-02-26 18:21:00,29.0,19.0,-100.00,WSW,252,10.0,13.0,65,-99.99,,,-99.99,16.900000,,2013-02-27 01:21:00,
2013-02-26 18:31:00,28.0,19.0,-100.00,WSW,251,9.0,12.0,67,-99.99,,,-99.99,6.300000,,2013-02-27 01:31:00,
2013-02-26 18:41:00,28.0,19.0,-100.00,WSW,243,7.0,10.0,69,-99.99,,,-99.99,1.800000,,2013-02-27 01:41:00,
2013-02-26 18:51:00,28.0,19.0,-100.00,WSW,238,6.0,9.0,69,-99.99,,,-99.99,0.200000,,2013-02-27 01:51:00,
2013-02-26 19:01:00,27.0,19.0,-100.00,SW,228,6.0,9.0,70,-99.99,,,-99.99,-0.100000,,2013-02-27 02:01:00,
2013-02-26 19:11:00,27.0,18.0,-100.00,WSW,242,7.0,10.0,69,-99.99,,,-99.99,-0.100000,,2013-02-27 02:11:00,
2013-02-26 19:21:00,26.0,18.0,-100.00,WSW,247,7.0,10.0,69,-99.99,,,-99.99,-0.100000,,2013-02-27 02:21:00,
2013-02-26 19:31:00,26.0,17.0,-100.00,WSW,246,8.0,11.0,68,-99.99,,,-99.99,-0.100000,,2013-02-27 02:31:00,
2013-02-26 19:41:00,26.0,17.0,-100.00,WSW,246,9.0,11.0,68,-99.99,,,-99.99,-0.100000,,2013-02-27 02:41:00,
2013-02-26 19:51:00,26.0,17.0,-100.00,WSW,240,9.0,13.0,68,-99.99,,,-99.99,-0.100000,,2013-02-27 02:51:00,
2013-02-26 20:01:00,26.0,17.0,-100.00,WSW,244,9.0,13.0,68,-99.99,,,-99.99,-0.100000,,2013-02-27 03:01:00,
2013-02-26 20:11:00,25.0,17.0,-100.00,WSW,242,8.0,11.0,70,-99.99,,,-99.99,-0.100000,,2013-02-27 03:11:00,
2013-02-26 20:21:00,25.0,17.0,-100.00,SW,227,7.0,11.0,71,-99.99,,,-99.99,-0.100000,,2013-02-27 03:21:00,
2013-02-26 20:31:00,24.0,17.0,-100.00,SW,222,8.0,9.0,73,-99.99,,,-99.99,-0.100000,,2013-02-27 03:31:00,
2013-02-26 20:41:00,24.0,17.0,-100.00,SSW,211,9.0,11.0,74,-99.99,,,-99.99,-0.100000,,2013-02-27 03:41:00,
2013-02-26 20:51:00,24.0,18.0,-100.00,SSW,209,8.0,11.0,75,-99.99,,,-99.99,-0.100000,,2013-02-27 03:51:00,
2013-02-26 21:01:00,23.0,18.0,-100.00,SSW,199,9.0,11.0,80,-99.99,,,-99.99,0.000000,,2013-02-27 04:01:00,
2013-02-26 21:11:00,23.0,19.0,-100.00,SSW,205,8.0,10.0,81,-99.99,,,-99.99,-0.100000,,2013-02-27 04:11:00,
2013-02-26 21:21:00,24.0,19.0,-100.00,SSW,210,9.0,14.0,79,-99.99,,,-99.99,-0.100000,,2013-02-27 04:21:00,
2013-02-26 21:31:00,25.0,19.0,-100.00,SSW,212,11.0,14.0,78,-99.99,,,-99.99,-0.100000,,2013-02-27 04:31:00,
2013-02-26 21:41:00,24.0,19.0,-100.00,SSW,204,9.0,13.0,79,-99.99,,,-99.99,-0.100000,,2013-02-27 04:41:00,
2013-02-26 21:51:00,25.0,19.0,-100.00,SSW,209,11.0,14.0,78,-99.99,,,-99.99,-0.100000,,2013-02-27 04:51:00,
2013-02-26 22:01:00,24.0,19.0,-100.00,SSW,205,9.0,12.0,79,-99.99,,,-99.99,-0.100000,,2013-02-27 05:01:00,
2013-02-26 22:11:00,24.0,19.0,-100.00,SSW,207,9.0,11.0,80,-99.99,,,-99.99,-0.100000,,2013-02-27 05:11:00,
2013-02-26 22:21:00,24.0,18.0,-100.00,SSW,213,11.0,14.0,78,-99.99,,,-99.99,-0.100000,,2013-02-27 05:21:00,
2013-02-26 22:32:00,23.0,18.0,-100.00,SW,214,10.0,12.0,78,-99.99,,,-99.99,-0.100000,,2013-02-27 05:32:00,
2013-02-26 22:41:00,23.0,17.0,-100.00,SW,221,9.0,12.0,77,-99.99,,,-99.99,-0.100000,,2013-02-27 05:41:00,
2013-02-26 22:52:00,23.0,17.0,-100.00,SW,218,10.0,12.0,77,-99.99,,,-99.99,-0.100000,,2013-02-27 05:52:00,
2013-02-26 23:02:00,23.0,17.0,-100.00,SW,221,9.0,12.0,77,-99.99,,,-99.99,-0.100000,,2013-02-27 06:02:00,
2013-02-26 23:11:00,23.0,17.0,-100.00,SW,223,8.0,11.0,77,-99.99,,,-99.99,-0.100000,,2013-02-27 06:11:00,
2013-02-26 23:21:00,22.0,16.0,-100.00,SW,223,8.0,10.0,77,-99.99,,,-99.99,-0.100000,,2013-02-27 06:21:00,
2013-02-26 23:32:00,22.0,16.0,-100.00,SW,219,8.0,11.0,78,-99.99,,,-99.99,-0.100000,,2013-02-27 06:32:00,
2013-02-26 23:41:00,22.0,16.0,-100.00,SW,217,7.0,10.0,78,-99.99,,,-99.99,-0.100000,,2013-02-27 06:41:00,
2013-02-26 23:51:00,22.0,16.0,-100.00,SW,214,7.0,9.0,79,-99.99,,,-99.99,-0.100000,,2013-02-27 06:51:00,